FZQA

Lubumbashi International Airport

Airport
ICAO code
FZQA
IATA Code
FBM
Summary
ICAO Region
AFI
Location

, Katanga

Serving
Lubumashi
Elevation
4295 ft
Coordinates
11° 35' 29" S , 27° 31' 51" E
Metar
FZQA 201100Z 12008KT 9999 BKN018 27/17 Q1019 NOSIG

Runways

Designator Length Width Surface Rops
7/25 3238 50 ASP No/No

Airport map

Aerial View

SKYbrary Partners:

Safety knowledge contributed by: